sensor_id;sensor_type;location;lat;lon;timestamp;pressure;altitude;pressure_sealevel;temperature;humidity
7170;BME280;3626;42.656;23.312;2022-11-20T00:00:06;93756.31;;;17.31;62.95
7170;BME280;3626;42.656;23.312;2022-11-20T00:00:14;93813.69;;;17.31;63.00
7170;BME280;3626;42.656;23.312;2022-11-20T00:00:20;93802.72;;;17.29;63.07
7170;BME280;3626;42.656;23.312;2022-11-20T00:00:25;93793.84;;;17.30;63.08
7170;BME280;3626;42.656;23.312;2022-11-20T00:00:31;93797.25;;;17.31;63.21
7170;BME280;3626;42.656;23.312;2022-11-20T00:00:37;93805.88;;;17.31;63.00
7170;BME280;3626;42.656;23.312;2022-11-20T00:00:44;93771.41;;;17.29;62.94
7170;BME280;3626;42.656;23.312;2022-11-20T00:00:49;93791.25;;;17.30;63.07
7170;BME280;3626;42.656;23.312;2022-11-20T00:00:55;93796.47;;;17.30;62.95
7170;BME280;3626;42.656;23.312;2022-11-20T00:01:04;93796.47;;;17.30;63.29
7170;BME280;3626;42.656;23.312;2022-11-20T00:01:12;93788.84;;;17.29;63.32
7170;BME280;3626;42.656;23.312;2022-11-20T00:01:21;93797.69;;;17.28;63.48
7170;BME280;3626;42.656;23.312;2022-11-20T00:01:27;93816.97;;;17.27;63.27
7170;BME280;3626;42.656;23.312;2022-11-20T00:01:33;93806.31;;;17.28;63.35
7170;BME280;3626;42.656;23.312;2022-11-20T00:01:39;93790.66;;;17.28;63.22
7170;BME280;3626;42.656;23.312;2022-11-20T00:01:45;93781.28;;;17.27;63.41
7170;BME280;3626;42.656;23.312;2022-11-20T00:01:50;93793.50;;;17.27;63.39
7170;BME280;3626;42.656;23.312;2022-11-20T00:01:56;93810.97;;;17.26;63.21
7170;BME280;3626;42.656;23.312;2022-11-20T00:02:02;93784.91;;;17.26;63.09
7170;BME280;3626;42.656;23.312;2022-11-20T00:02:07;93782.06;;;17.28;63.07
7170;BME280;3626;42.656;23.312;2022-11-20T00:02:13;93775.81;;;17.29;62.98
7170;BME280;3626;42.656;23.312;2022-11-20T00:02:19;93758.38;;;17.29;62.79
7170;BME280;3626;42.656;23.312;2022-11-20T00:02:24;93761.78;;;17.30;63.00
7170;BME280;3626;42.656;23.312;2022-11-20T00:02:30;93793.84;;;17.30;63.19
7170;BME280;3626;42.656;23.312;2022-11-20T00:02:36;93796.47;;;17.30;63.07
7170;BME280;3626;42.656;23.312;2022-11-20T00:02:42;93781.84;;;17.29;63.07
7170;BME280;3626;42.656;23.312;2022-11-20T00:02:48;93787.84;;;17.30;63.29
7170;BME280;3626;42.656;23.312;2022-11-20T00:02:54;93800.09;;;17.29;63.11
7170;BME280;3626;42.656;23.312;2022-11-20T00:02:59;93799.28;;;17.29;63.14
7170;BME280;3626;42.656;23.312;2022-11-20T00:03:05;93803.72;;;17.28;62.98
7170;BME280;3626;42.656;23.312;2022-11-20T00:03:11;93788.63;;;17.30;63.06
7170;BME280;3626;42.656;23.312;2022-11-20T00:03:17;93777.19;;;17.31;62.89
7170;BME280;3626;42.656;23.312;2022-11-20T00:03:23;93802.47;;;17.31;62.95
7170;BME280;3626;42.656;23.312;2022-11-20T00:03:29;93796.47;;;17.30;63.21
7170;BME280;3626;42.656;23.312;2022-11-20T00:03:34;93784.22;;;17.31;63.19
7170;BME280;3626;42.656;23.312;2022-11-20T00:03:41;93804.84;;;17.32;63.18
7170;BME280;3626;42.656;23.312;2022-11-20T00:03:46;93794.66;;;17.31;63.49
7170;BME280;3626;42.656;23.312;2022-11-20T00:03:54;93783.44;;;17.30;63.37
7170;BME280;3626;42.656;23.312;2022-11-20T00:04:00;93792.03;;;17.31;63.29
7170;BME280;3626;42.656;23.312;2022-11-20T00:04:09;93794.66;;;17.31;63.31
7170;BME280;3626;42.656;23.312;2022-11-20T00:04:15;93788.84;;;17.29;63.26
7170;BME280;3626;42.656;23.312;2022-11-20T00:04:21;93796.47;;;17.30;63.20
7170;BME280;3626;42.656;23.312;2022-11-20T00:04:27;93799.06;;;17.30;63.06
7170;BME280;3626;42.656;23.312;2022-11-20T00:04:32;93795.69;;;17.30;63.08
7170;BME280;3626;42.656;23.312;2022-11-20T00:04:38;93806.91;;;17.30;63.14
7170;BME280;3626;42.656;23.312;2022-11-20T00:04:44;93819.94;;;17.30;63.23
7170;BME280;3626;42.656;23.312;2022-11-20T00:04:50;93783.44;;;17.30;63.41
7170;BME280;3626;42.656;23.312;2022-11-20T00:04:56;93789.44;;;17.31;63.32
7170;BME280;3626;42.656;23.312;2022-11-20T00:05:01;93804.28;;;17.30;63.45
7170;BME280;3626;42.656;23.312;2022-11-20T00:05:08;93813.69;;;17.31;63.31
7170;BME280;3626;42.656;23.312;2022-11-20T00:05:14;93815.50;;;17.31;63.40
7170;BME280;3626;42.656;23.312;2022-11-20T00:05:19;93811.31;;;17.30;63.41
7170;BME280;3626;42.656;23.312;2022-11-20T00:05:26;93805.88;;;17.31;63.49
7170;BME280;3626;42.656;23.312;2022-11-20T00:05:32;93777.19;;;17.31;63.59
7170;BME280;3626;42.656;23.312;2022-11-20T00:05:39;93788.63;;;17.30;63.62
7170;BME280;3626;42.656;23.312;2022-11-20T00:05:45;93801.09;;;17.28;63.56
7170;BME280;3626;42.656;23.312;2022-11-20T00:05:50;93816.75;;;17.28;63.54
7170;BME280;3626;42.656;23.312;2022-11-20T00:05:59;93785.25;;;17.30;63.41
7170;BME280;3626;42.656;23.312;2022-11-20T00:06:07;93817.34;;;17.30;63.74
7170;BME280;3626;42.656;23.312;2022-11-20T00:06:15;93793.06;;;17.30;63.46
7170;BME280;3626;42.656;23.312;2022-11-20T00:06:22;93816.31;;;17.31;63.34
7170;BME280;3626;42.656;23.312;2022-11-20T00:06:28;93798.84;;;17.32;63.38
7170;BME280;3626;42.656;23.312;2022-11-20T00:06:34;93798.03;;;17.31;63.27
7170;BME280;3626;42.656;23.312;2022-11-20T00:06:39;93808.47;;;17.31;63.38
7170;BME280;3626;42.656;23.312;2022-11-20T00:06:46;93813.69;;;17.31;63.25
7170;BME280;3626;42.656;23.312;2022-11-20T00:06:53;93806.91;;;17.30;63.34
7170;BME280;3626;42.656;23.312;2022-11-20T00:06:58;93788.63;;;17.30;63.59
7170;BME280;3626;42.656;23.312;2022-11-20T00:07:04;93802.47;;;17.31;63.53
7170;BME280;3626;42.656;23.312;2022-11-20T00:07:10;93795.69;;;17.30;63.68
7170;BME280;3626;42.656;23.312;2022-11-20T00:07:16;93806.91;;;17.30;63.79
7170;BME280;3626;42.656;23.312;2022-11-20T00:07:21;93802.72;;;17.29;63.81
7170;BME280;3626;42.656;23.312;2022-11-20T00:07:27;93784.47;;;17.29;63.81
7170;BME280;3626;42.656;23.312;2022-11-20T00:07:33;93784.47;;;17.29;63.83
7170;BME280;3626;42.656;23.312;2022-11-20T00:07:38;93826.97;;;17.30;63.75
7170;BME280;3626;42.656;23.312;2022-11-20T00:07:44;93808.72;;;17.30;63.59
7170;BME280;3626;42.656;23.312;2022-11-20T00:07:50;93799.28;;;17.29;63.97
7170;BME280;3626;42.656;23.312;2022-11-20T00:07:56;93805.53;;;17.28;63.74
7170;BME280;3626;42.656;23.312;2022-11-20T00:08:01;93813.34;;;17.28;63.69
7170;BME280;3626;42.656;23.312;2022-11-20T00:08:07;93811.53;;;17.28;63.34
7170;BME280;3626;42.656;23.312;2022-11-20T00:08:13;93800.31;;;17.28;63.39
7170;BME280;3626;42.656;23.312;2022-11-20T00:08:19;93802.72;;;17.29;63.30
7170;BME280;3626;42.656;23.312;2022-11-20T00:08:25;93788.63;;;17.30;63.25
7170;BME280;3626;42.656;23.312;2022-11-20T00:08:31;93787.06;;;17.29;63.04
7170;BME280;3626;42.656;23.312;2022-11-20T00:08:37;93806.91;;;17.30;63.31
7170;BME280;3626;42.656;23.312;2022-11-20T00:08:44;93821.75;;;17.30;63.49
7170;BME280;3626;42.656;23.312;2022-11-20T00:08:50;93820.97;;;17.29;63.26
7170;BME280;3626;42.656;23.312;2022-11-20T00:08:57;93794.31;;;17.27;63.22
7170;BME280;3626;42.656;23.312;2022-11-20T00:09:03;93812.56;;;17.27;63.20
7170;BME280;3626;42.656;23.312;2022-11-20T00:09:10;93808.38;;;17.26;63.54
7170;BME280;3626;42.656;23.312;2022-11-20T00:09:16;93792.72;;;17.26;63.28
7170;BME280;3626;42.656;23.312;2022-11-20T00:09:21;93800.53;;;17.26;63.41
7170;BME280;3626;42.656;23.312;2022-11-20T00:09:27;93814.63;;;17.25;63.77
7170;BME280;3626;42.656;23.312;2022-11-20T00:09:34;93824.00;;;17.26;63.30
7170;BME280;3626;42.656;23.312;2022-11-20T00:09:39;93823.00;;;17.27;63.37
7170;BME280;3626;42.656;23.312;2022-11-20T00:09:45;93823.78;;;17.28;63.36
7170;BME280;3626;42.656;23.312;2022-11-20T00:09:51;93838.63;;;17.27;63.37
7170;BME280;3626;42.656;23.312;2022-11-20T00:09:57;93803.16;;;17.26;63.59
7170;BME280;3626;42.656;23.312;2022-11-20T00:10:03;93805.75;;;17.26;63.67
7170;BME280;3626;42.656;23.312;2022-11-20T00:10:09;93823.44;;;17.24;63.58
7170;BME280;3626;42.656;23.312;2022-11-20T00:10:15;93786.94;;;17.24;63.53
7170;BME280;3626;42.656;23.312;2022-11-20T00:10:20;93816.19;;;17.26;63.42
7170;BME280;3626;42.656;23.312;2022-11-20T00:10:26;93816.19;;;17.26;63.35
7170;BME280;3626;42.656;23.312;2022-11-20T00:10:32;93814.63;;;17.25;63.36
7170;BME280;3626;42.656;23.312;2022-11-20T00:10:41;93824.00;;;17.26;63.29
7170;BME280;3626;42.656;23.312;2022-11-20T00:10:47;93831.84;;;17.26;63.42
7170;BME280;3626;42.656;23.312;2022-11-20T00:10:52;93823.78;;;17.28;63.45
7170;BME280;3626;42.656;23.312;2022-11-20T00:11:03;93808.13;;;17.28;63.41
7170;BME280;3626;42.656;23.312;2022-11-20T00:11:11;93808.38;;;17.26;63.69
7170;BME280;3626;42.656;23.312;2022-11-20T00:11:19;93823.00;;;17.27;63.46
7170;BME280;3626;42.656;23.312;2022-11-20T00:11:27;93761.19;;;17.28;63.57
7170;BME280;3626;42.656;23.312;2022-11-20T00:11:33;93792.50;;;17.28;63.48
7170;BME280;3626;42.656;23.312;2022-11-20T00:11:38;93802.13;;;17.27;63.18
7170;BME280;3626;42.656;23.312;2022-11-20T00:11:44;93801.09;;;17.28;63.07
7170;BME280;3626;42.656;23.312;2022-11-20T00:11:50;93796.69;;;17.29;63.05
7170;BME280;3626;42.656;23.312;2022-11-20T00:11:55;93809.72;;;17.29;62.97
7170;BME280;3626;42.656;23.312;2022-11-20T00:12:01;93820.97;;;17.29;63.12
7170;BME280;3626;42.656;23.312;2022-11-20T00:12:07;93809.50;;;17.30;63.13
7170;BME280;3626;42.656;23.312;2022-11-20T00:12:13;93839.22;;;17.29;63.07
7170;BME280;3626;42.656;23.312;2022-11-20T00:12:18;93821.75;;;17.30;63.25
7170;BME280;3626;42.656;23.312;2022-11-20T00:12:24;93813.94;;;17.30;63.14
7170;BME280;3626;42.656;23.312;2022-11-20T00:12:30;93817.09;;;17.32;62.79
7170;BME280;3626;42.656;23.312;2022-11-20T00:12:37;93808.81;;;17.35;62.80
7170;BME280;3626;42.656;23.312;2022-11-20T00:12:43;93804.41;;;17.35;62.81
7170;BME280;3626;42.656;23.312;2022-11-20T00:12:48;93801.34;;;17.38;62.49
7170;BME280;3626;42.656;23.312;2022-11-20T00:12:55;93803.16;;;17.38;62.59
7170;BME280;3626;42.656;23.312;2022-11-20T00:13:00;93804.16;;;17.37;62.73
7170;BME280;3626;42.656;23.312;2022-11-20T00:13:07;93809.38;;;17.37;62.78
7170;BME280;3626;42.656;23.312;2022-11-20T00:13:12;93813.00;;;17.36;62.65
7170;BME280;3626;42.656;23.312;2022-11-20T00:13:19;93824.81;;;17.38;62.64
7170;BME280;3626;42.656;23.312;2022-11-20T00:13:24;93784.91;;;17.38;62.69
7170;BME280;3626;42.656;23.312;2022-11-20T00:13:30;93786.69;;;17.37;62.82
7170;BME280;3626;42.656;23.312;2022-11-20T00:13:36;93791.91;;;17.37;62.74
7170;BME280;3626;42.656;23.312;2022-11-20T00:13:42;93791.13;;;17.37;62.73
7170;BME280;3626;42.656;23.312;2022-11-20T00:13:49;93779.91;;;17.36;62.99
7170;BME280;3626;42.656;23.312;2022-11-20T00:13:58;93778.06;;;17.37;62.90
7170;BME280;3626;42.656;23.312;2022-11-20T00:14:04;93779.09;;;17.36;62.92
7170;BME280;3626;42.656;23.312;2022-11-20T00:14:10;93803.38;;;17.36;62.72
7170;BME280;3626;42.656;23.312;2022-11-20T00:14:16;93800.75;;;17.36;62.75
7170;BME280;3626;42.656;23.312;2022-11-20T00:14:22;93797.38;;;17.36;62.72
7170;BME280;3626;42.656;23.312;2022-11-20T00:14:27;93777.28;;;17.36;62.61
7170;BME280;3626;42.656;23.312;2022-11-20T00:14:33;93772.31;;;17.35;62.63
7170;BME280;3626;42.656;23.312;2022-11-20T00:14:39;93780.13;;;17.35;62.82
7170;BME280;3626;42.656;23.312;2022-11-20T00:14:46;93770.72;;;17.34;62.76
7170;BME280;3626;42.656;23.312;2022-11-20T00:14:52;93779.56;;;17.33;62.91
7170;BME280;3626;42.656;23.312;2022-11-20T00:14:57;93789.97;;;17.33;62.85
7170;BME280;3626;42.656;23.312;2022-11-20T00:15:04;93739.44;;;17.34;62.87
7170;BME280;3626;42.656;23.312;2022-11-20T00:15:10;93798.63;;;17.33;62.86
7170;BME280;3626;42.656;23.312;2022-11-20T00:15:15;93805.44;;;17.34;62.89
7170;BME280;3626;42.656;23.312;2022-11-20T00:15:21;93809.84;;;17.34;62.89
7170;BME280;3626;42.656;23.312;2022-11-20T00:15:28;93797.59;;;17.34;62.88
7170;BME280;3626;42.656;23.312;2022-11-20T00:15:34;93802.81;;;17.34;62.93
7170;BME280;3626;42.656;23.312;2022-11-20T00:15:40;93811.44;;;17.35;62.97
7170;BME280;3626;42.656;23.312;2022-11-20T00:15:47;93793.19;;;17.35;62.99
7170;BME280;3626;42.656;23.312;2022-11-20T00:15:57;93784.56;;;17.34;62.92
7170;BME280;3626;42.656;23.312;2022-11-20T00:16:05;93777.53;;;17.35;62.88
7170;BME280;3626;42.656;23.312;2022-11-20T00:16:13;93779.56;;;17.33;62.59
7170;BME280;3626;42.656;23.312;2022-11-20T00:16:20;93775.16;;;17.33;63.00
7170;BME280;3626;42.656;23.312;2022-11-20T00:16:28;93768.13;;;17.34;62.78
7170;BME280;3626;42.656;23.312;2022-11-20T00:16:35;93765.50;;;17.34;62.60
7170;BME280;3626;42.656;23.312;2022-11-20T00:16:40;93775.94;;;17.34;62.33
7170;BME280;3626;42.656;23.312;2022-11-20T00:16:47;93783.53;;;17.35;62.71
7170;BME280;3626;42.656;23.312;2022-11-20T00:16:53;93800.75;;;17.36;62.56
7170;BME280;3626;42.656;23.312;2022-11-20T00:16:58;93800.22;;;17.34;62.77
7170;BME280;3626;42.656;23.312;2022-11-20T00:17:05;93796.81;;;17.34;62.85
7170;BME280;3626;42.656;23.312;2022-11-20T00:17:11;93815.06;;;17.34;62.63
7170;BME280;3626;42.656;23.312;2022-11-20T00:17:16;93799.63;;;17.32;62.66
7170;BME280;3626;42.656;23.312;2022-11-20T00:17:22;93803.03;;;17.33;62.60
7170;BME280;3626;42.656;23.312;2022-11-20T00:17:28;93802.81;;;17.34;62.37
7170;BME280;3626;42.656;23.312;2022-11-20T00:17:34;93827.31;;;17.33;62.19
7170;BME280;3626;42.656;23.312;2022-11-20T00:17:39;93792.38;;;17.34;62.44
7170;BME280;3626;42.656;23.312;2022-11-20T00:17:46;93783.53;;;17.35;62.63
7170;BME280;3626;42.656;23.312;2022-11-20T00:17:51;93778.56;;;17.34;62.37
7170;BME280;3626;42.656;23.312;2022-11-20T00:17:57;93777.53;;;17.35;62.28
7170;BME280;3626;42.656;23.312;2022-11-20T00:18:03;93787.97;;;17.35;62.11
7170;BME280;3626;42.656;23.312;2022-11-20T00:18:09;93786.13;;;17.35;62.01
7170;BME280;3626;42.656;23.312;2022-11-20T00:18:14;93786.13;;;17.35;62.19
7170;BME280;3626;42.656;23.312;2022-11-20T00:18:20;93788.75;;;17.35;61.97
7170;BME280;3626;42.656;23.312;2022-11-20T00:18:26;93779.09;;;17.36;61.97
7170;BME280;3626;42.656;23.312;2022-11-20T00:18:33;93821.63;;;17.36;61.93
7170;BME280;3626;42.656;23.312;2022-11-20T00:18:39;93810.41;;;17.36;62.12
7170;BME280;3626;42.656;23.312;2022-11-20T00:18:45;93774.69;;;17.36;62.13
7170;BME280;3626;42.656;23.312;2022-11-20T00:18:51;93782.75;;;17.35;62.31
7170;BME280;3626;42.656;23.312;2022-11-20T00:18:57;93787.97;;;17.35;62.19
7170;BME280;3626;42.656;23.312;2022-11-20T00:19:03;93778.31;;;17.35;62.44
7170;BME280;3626;42.656;23.312;2022-11-20T00:19:09;93781.94;;;17.34;62.55
7170;BME280;3626;42.656;23.312;2022-11-20T00:19:15;93776.75;;;17.34;62.53
7170;BME280;3626;42.656;23.312;2022-11-20T00:19:21;93770.72;;;17.34;62.54
7170;BME280;3626;42.656;23.312;2022-11-20T00:19:27;93788.75;;;17.35;62.36
7170;BME280;3626;42.656;23.312;2022-11-20T00:19:32;93808.03;;;17.34;62.70
7170;BME280;3626;42.656;23.312;2022-11-20T00:19:38;93756.91;;;17.33;62.63
7170;BME280;3626;42.656;23.312;2022-11-20T00:19:44;93782.97;;;17.33;62.57
7170;BME280;3626;42.656;23.312;2022-11-20T00:19:49;93783.97;;;17.32;62.78
7170;BME280;3626;42.656;23.312;2022-11-20T00:19:56;93787.38;;;17.33;62.69
7170;BME280;3626;42.656;23.312;2022-11-20T00:20:02;93779.56;;;17.33;62.65
7170;BME280;3626;42.656;23.312;2022-11-20T00:20:09;93808.03;;;17.34;62.67
7170;BME280;3626;42.656;23.312;2022-11-20T00:20:15;93774.91;;;17.35;62.72
7170;BME280;3626;42.656;23.312;2022-11-20T00:20:21;93793.19;;;17.35;62.63
7170;BME280;3626;42.656;23.312;2022-11-20T00:20:27;93791.34;;;17.35;62.59
7170;BME280;3626;42.656;23.312;2022-11-20T00:20:33;93803.38;;;17.36;62.71
7170;BME280;3626;42.656;23.312;2022-11-20T00:20:38;93776.75;;;17.34;62.83
7170;BME280;3626;42.656;23.312;2022-11-20T00:20:44;93787.97;;;17.35;62.74
7170;BME280;3626;42.656;23.312;2022-11-20T00:20:50;93787.16;;;17.34;62.55
7170;BME280;3626;42.656;23.312;2022-11-20T00:21:01;93783.53;;;17.35;62.62
7170;BME280;3626;42.656;23.312;2022-11-20T00:21:09;93793.97;;;17.35;62.53
7170;BME280;3626;42.656;23.312;2022-11-20T00:21:18;93803.59;;;17.35;62.66
7170;BME280;3626;42.656;23.312;2022-11-20T00:21:25;93779.34;;;17.34;62.79
7170;BME280;3626;42.656;23.312;2022-11-20T00:21:31;93785.34;;;17.35;62.35
7170;BME280;3626;42.656;23.312;2022-11-20T00:21:37;93769.94;;;17.33;62.58
7170;BME280;3626;42.656;23.312;2022-11-20T00:21:43;93789.78;;;17.34;62.44
7170;BME280;3626;42.656;23.312;2022-11-20T00:21:48;93791.34;;;17.35;62.46
7170;BME280;3626;42.656;23.312;2022-11-20T00:21:56;93777.28;;;17.36;62.39
7170;BME280;3626;42.656;23.312;2022-11-20T00:22:02;93761.63;;;17.36;62.48
7170;BME280;3626;42.656;23.312;2022-11-20T00:22:08;93771.28;;;17.36;62.45
7170;BME280;3626;42.656;23.312;2022-11-20T00:22:14;93789.53;;;17.36;62.56
7170;BME280;3626;42.656;23.312;2022-11-20T00:22:19;93798.16;;;17.36;62.51
7170;BME280;3626;42.656;23.312;2022-11-20T00:22:25;93805.97;;;17.36;62.58
7170;BME280;3626;42.656;23.312;2022-11-20T00:22:32;93766.06;;;17.36;62.66
7170;BME280;3626;42.656;23.312;2022-11-20T00:22:37;93802.34;;;17.37;62.64
7170;BME280;3626;42.656;23.312;2022-11-20T00:22:43;93784.31;;;17.36;62.67
7170;BME280;3626;42.656;23.312;2022-11-20T00:22:49;93756.66;;;17.35;62.73
7170;BME280;3626;42.656;23.312;2022-11-20T00:22:55;93761.09;;;17.34;62.79
7170;BME280;3626;42.656;23.312;2022-11-20T00:23:01;93780.38;;;17.33;62.87
7170;BME280;3626;42.656;23.312;2022-11-20T00:23:06;93802.03;;;17.34;62.89
7170;BME280;3626;42.656;23.312;2022-11-20T00:23:12;93743.88;;;17.33;62.58
7170;BME280;3626;42.656;23.312;2022-11-20T00:23:18;93769.47;;;17.36;62.49
7170;BME280;3626;42.656;23.312;2022-11-20T00:23:23;93744.97;;;17.37;62.46
7170;BME280;3626;42.656;23.312;2022-11-20T00:23:29;93706.66;;;17.38;62.23
7170;BME280;3626;42.656;23.312;2022-11-20T00:23:35;93762.22;;;17.38;62.04
7170;BME280;3626;42.656;23.312;2022-11-20T00:23:41;93786.47;;;17.39;62.05
7170;BME280;3626;42.656;23.312;2022-11-20T00:23:50;93752.56;;;17.39;62.23
7170;BME280;3626;42.656;23.312;2022-11-20T00:23:56;93771.03;;;17.37;62.47
7170;BME280;3626;42.656;23.312;2022-11-20T00:24:02;93773.66;;;17.37;62.45
7170;BME280;3626;42.656;23.312;2022-11-20T00:24:09;93771.03;;;17.37;62.44
7170;BME280;3626;42.656;23.312;2022-11-20T00:24:15;93785.69;;;17.38;62.38
7170;BME280;3626;42.656;23.312;2022-11-20T00:24:20;93792.72;;;17.38;62.20
7170;BME280;3626;42.656;23.312;2022-11-20T00:24:26;93797.94;;;17.38;62.33
7170;BME280;3626;42.656;23.312;2022-11-20T00:24:32;93800.56;;;17.38;62.08
7170;BME280;3626;42.656;23.312;2022-11-20T00:24:37;93776.25;;;17.37;61.99
7170;BME280;3626;42.656;23.312;2022-11-20T00:24:43;93784.91;;;17.38;62.15
7170;BME280;3626;42.656;23.312;2022-11-20T00:24:49;93779.69;;;17.38;62.00
7170;BME280;3626;42.656;23.312;2022-11-20T00:24:56;93785.69;;;17.38;62.10
7170;BME280;3626;42.656;23.312;2022-11-20T00:25:02;93772.66;;;17.38;62.47
7170;BME280;3626;42.656;23.312;2022-11-20T00:25:08;93768.22;;;17.39;62.27
7170;BME280;3626;42.656;23.312;2022-11-20T00:25:14;93779.69;;;17.38;62.27
7170;BME280;3626;42.656;23.312;2022-11-20T00:25:20;93787.50;;;17.38;62.36
7170;BME280;3626;42.656;23.312;2022-11-20T00:25:25;93770.84;;;17.39;62.34
7170;BME280;3626;42.656;23.312;2022-11-20T00:25:33;93761.97;;;17.40;62.05
7170;BME280;3626;42.656;23.312;2022-11-20T00:25:39;93781.03;;;17.40;62.32
7170;BME280;3626;42.656;23.312;2022-11-20T00:25:45;93783.63;;;17.40;62.29
7170;BME280;3626;42.656;23.312;2022-11-20T00:25:51;93786.03;;;17.42;62.28
7170;BME280;3626;42.656;23.312;2022-11-20T00:25:56;93773.19;;;17.40;62.22
7170;BME280;3626;42.656;23.312;2022-11-20T00:26:07;93773.19;;;17.40;62.37
7170;BME280;3626;42.656;23.312;2022-11-20T00:26:16;93779.44;;;17.39;62.34
7170;BME280;3626;42.656;23.312;2022-11-20T00:26:23;93795.09;;;17.39;62.23
7170;BME280;3626;42.656;23.312;2022-11-20T00:26:29;93792.50;;;17.39;62.36
7170;BME280;3626;42.656;23.312;2022-11-20T00:26:35;93801.34;;;17.38;62.30
7170;BME280;3626;42.656;23.312;2022-11-20T00:26:41;93789.88;;;17.39;62.33
7170;BME280;3626;42.656;23.312;2022-11-20T00:26:46;93781.81;;;17.41;62.41
7170;BME280;3626;42.656;23.312;2022-11-20T00:26:52;93793.03;;;17.41;62.34
7170;BME280;3626;42.656;23.312;2022-11-20T00:26:58;93759.13;;;17.41;61.97
7170;BME280;3626;42.656;23.312;2022-11-20T00:27:04;93770.59;;;17.40;61.89
7170;BME280;3626;42.656;23.312;2022-11-20T00:27:09;93768.78;;;17.41;61.99
7170;BME280;3626;42.656;23.312;2022-11-20T00:27:15;93779.78;;;17.43;61.85
7170;BME280;3626;42.656;23.312;2022-11-20T00:27:22;93771.72;;;17.44;61.42
7170;BME280;3626;42.656;23.312;2022-11-20T00:27:27;93758.69;;;17.44;61.08
7170;BME280;3626;42.656;23.312;2022-11-20T00:27:33;93772.50;;;17.45;60.88
7170;BME280;3626;42.656;23.312;2022-11-20T00:27:39;93763.69;;;17.46;60.75
7170;BME280;3626;42.656;23.312;2022-11-20T00:27:45;93770.69;;;17.45;60.67
7170;BME280;3626;42.656;23.312;2022-11-20T00:27:50;93769.91;;;17.45;60.45
7170;BME280;3626;42.656;23.312;2022-11-20T00:27:56;93776.50;;;17.47;60.39
7170;BME280;3626;42.656;23.312;2022-11-20T00:28:02;93768.66;;;17.47;60.22
7170;BME280;3626;42.656;23.312;2022-11-20T00:28:07;93761.88;;;17.46;60.38
7170;BME280;3626;42.656;23.312;2022-11-20T00:28:13;93779.09;;;17.47;60.37
7170;BME280;3626;42.656;23.312;2022-11-20T00:28:19;93764.25;;;17.48;60.46
7170;BME280;3626;42.656;23.312;2022-11-20T00:28:24;93783.28;;;17.48;60.46
7170;BME280;3626;42.656;23.312;2022-11-20T00:28:30;93803.38;;;17.48;60.56
7170;BME280;3626;42.656;23.312;2022-11-20T00:28:36;93786.94;;;17.47;60.65
7170;BME280;3626;42.656;23.312;2022-11-20T00:28:43;93772.06;;;17.48;60.67
7170;BME280;3626;42.656;23.312;2022-11-20T00:28:51;93722.25;;;17.49;60.68
7170;BME280;3626;42.656;23.312;2022-11-20T00:29:00;93728.28;;;17.50;60.47
7170;BME280;3626;42.656;23.312;2022-11-20T00:29:08;93749.16;;;17.50;60.57
7170;BME280;3626;42.656;23.312;2022-11-20T00:29:14;93769.47;;;17.48;60.60
7170;BME280;3626;42.656;23.312;2022-11-20T00:29:20;93772.84;;;17.48;60.65
7170;BME280;3626;42.656;23.312;2022-11-20T00:29:26;93764.81;;;17.50;60.82
7170;BME280;3626;42.656;23.312;2022-11-20T00:29:31;93761.97;;;17.52;60.61
7170;BME280;3626;42.656;23.312;2022-11-20T00:29:37;93778.41;;;17.52;60.78
7170;BME280;3626;42.656;23.312;2022-11-20T00:29:43;93777.88;;;17.50;60.92
7170;BME280;3626;42.656;23.312;2022-11-20T00:29:48;93782.25;;;17.49;60.93
7170;BME280;3626;42.656;23.312;2022-11-20T00:29:55;93783.88;;;17.51;60.94
7170;BME280;3626;42.656;23.312;2022-11-20T00:30:01;93788.28;;;17.50;61.19
7170;BME280;3626;42.656;23.312;2022-11-20T00:30:07;93764.81;;;17.50;61.42
7170;BME280;3626;42.656;23.312;2022-11-20T00:30:13;93770.81;;;17.51;61.34
7170;BME280;3626;42.656;23.312;2022-11-20T00:30:19;93791.69;;;17.51;61.21
7170;BME280;3626;42.656;23.312;2022-11-20T00:30:25;93783.06;;;17.50;61.04
7170;BME280;3626;42.656;23.312;2022-11-20T00:30:30;93772.41;;;17.52;60.65
7170;BME280;3626;42.656;23.312;2022-11-20T00:30:36;93777.88;;;17.50;60.96
7170;BME280;3626;42.656;23.312;2022-11-20T00:30:42;93760.38;;;17.51;60.68
7170;BME280;3626;42.656;23.312;2022-11-20T00:30:49;93772.66;;;17.50;60.59
7170;BME280;3626;42.656;23.312;2022-11-20T00:31:00;93765.81;;;17.49;60.62
7170;BME280;3626;42.656;23.312;2022-11-20T00:31:08;93764.81;;;17.50;60.25
7170;BME280;3626;42.656;23.312;2022-11-20T00:31:15;93775.25;;;17.50;60.45
7170;BME280;3626;42.656;23.312;2022-11-20T00:31:21;93787.47;;;17.49;60.50
7170;BME280;3626;42.656;23.312;2022-11-20T00:31:29;93775.25;;;17.50;60.62
7170;BME280;3626;42.656;23.312;2022-11-20T00:31:35;93786.47;;;17.51;60.58
7170;BME280;3626;42.656;23.312;2022-11-20T00:31:41;93788.28;;;17.50;60.65
7170;BME280;3626;42.656;23.312;2022-11-20T00:31:46;93786.47;;;17.51;60.88
7170;BME280;3626;42.656;23.312;2022-11-20T00:31:52;93779.66;;;17.49;60.94
7170;BME280;3626;42.656;23.312;2022-11-20T00:31:58;93759.81;;;17.48;61.18
7170;BME280;3626;42.656;23.312;2022-11-20T00:32:04;93761.38;;;17.49;61.12
7170;BME280;3626;42.656;23.312;2022-11-20T00:32:09;93758.00;;;17.49;61.27
7170;BME280;3626;42.656;23.312;2022-11-20T00:32:15;93770.03;;;17.50;61.42
7170;BME280;3626;42.656;23.312;2022-11-20T00:32:21;93716.25;;;17.49;61.46
7170;BME280;3626;42.656;23.312;2022-11-20T00:32:26;93758.00;;;17.49;61.42
7170;BME280;3626;42.656;23.312;2022-11-20T00:32:32;93749.38;;;17.48;61.27
7170;BME280;3626;42.656;23.312;2022-11-20T00:32:38;93731.13;;;17.48;61.11
7170;BME280;3626;42.656;23.312;2022-11-20T00:32:44;93756.16;;;17.49;61.18
7170;BME280;3626;42.656;23.312;2022-11-20T00:32:49;93768.44;;;17.49;61.11
7170;BME280;3626;42.656;23.312;2022-11-20T00:32:56;93768.66;;;17.47;61.11
7170;BME280;3626;42.656;23.312;2022-11-20T00:33:02;93771.28;;;17.47;61.30
7170;BME280;3626;42.656;23.312;2022-11-20T00:33:08;93773.88;;;17.47;61.23
7170;BME280;3626;42.656;23.312;2022-11-20T00:33:14;93766.84;;;17.48;61.26
7170;BME280;3626;42.656;23.312;2022-11-20T00:33:19;93726.13;;;17.47;61.66